sensor_id;sensor_type;location;lat;lon;timestamp;temperature;humidity
81842;DHT22;71284;50.918;7.092;2023-11-22T00:00:30;9.30;58.90
81842;DHT22;71284;50.918;7.092;2023-11-22T00:02:57;9.30;59.50
81842;DHT22;71284;50.918;7.092;2023-11-22T00:05:24;9.40;59.10
81842;DHT22;71284;50.918;7.092;2023-11-22T00:07:50;9.40;59.30
81842;DHT22;71284;50.918;7.092;2023-11-22T00:10:17;9.40;59.50
81842;DHT22;71284;50.918;7.092;2023-11-22T00:12:43;9.40;59.60
81842;DHT22;71284;50.918;7.092;2023-11-22T00:15:10;9.40;59.40
81842;DHT22;71284;50.918;7.092;2023-11-22T00:17:37;9.50;59.20
81842;DHT22;71284;50.918;7.092;2023-11-22T00:20:03;9.60;58.50
81842;DHT22;71284;50.918;7.092;2023-11-22T00:22:31;9.60;58.70
81842;DHT22;71284;50.918;7.092;2023-11-22T00:24:57;9.60;58.70
81842;DHT22;71284;50.918;7.092;2023-11-22T00:27:23;9.70;58.20
81842;DHT22;71284;50.918;7.092;2023-11-22T00:29:50;9.60;59.40
81842;DHT22;71284;50.918;7.092;2023-11-22T00:32:16;9.60;58.50
81842;DHT22;71284;50.918;7.092;2023-11-22T00:34:43;9.70;58.70
81842;DHT22;71284;50.918;7.092;2023-11-22T00:37:09;9.60;58.10
81842;DHT22;71284;50.918;7.092;2023-11-22T00:39:36;9.60;59.10
81842;DHT22;71284;50.918;7.092;2023-11-22T00:42:03;9.70;58.60
81842;DHT22;71284;50.918;7.092;2023-11-22T00:44:30;9.60;58.10
81842;DHT22;71284;50.918;7.092;2023-11-22T00:46:56;9.60;58.80
81842;DHT22;71284;50.918;7.092;2023-11-22T00:49:23;9.60;58.40
81842;DHT22;71284;50.918;7.092;2023-11-22T00:51:49;9.50;59.00
81842;DHT22;71284;50.918;7.092;2023-11-22T00:54:16;9.60;58.30
81842;DHT22;71284;50.918;7.092;2023-11-22T00:56:42;9.60;58.50
81842;DHT22;71284;50.918;7.092;2023-11-22T00:59:09;9.60;58.30
81842;DHT22;71284;50.918;7.092;2023-11-22T01:01:36;9.60;58.20
81842;DHT22;71284;50.918;7.092;2023-11-22T01:04:02;9.60;58.20
81842;DHT22;71284;50.918;7.092;2023-11-22T01:06:29;9.60;58.10
81842;DHT22;71284;50.918;7.092;2023-11-22T01:08:55;9.70;58.10
81842;DHT22;71284;50.918;7.092;2023-11-22T01:11:22;9.70;58.20
81842;DHT22;71284;50.918;7.092;2023-11-22T01:13:49;9.70;58.30
81842;DHT22;71284;50.918;7.092;2023-11-22T01:16:15;9.70;58.20
81842;DHT22;71284;50.918;7.092;2023-11-22T01:18:42;9.60;58.90
81842;DHT22;71284;50.918;7.092;2023-11-22T01:21:08;9.60;58.50
81842;DHT22;71284;50.918;7.092;2023-11-22T01:23:35;9.50;59.60
81842;DHT22;71284;50.918;7.092;2023-11-22T01:26:02;9.50;59.00
81842;DHT22;71284;50.918;7.092;2023-11-22T01:28:28;9.50;58.90
81842;DHT22;71284;50.918;7.092;2023-11-22T01:30:55;9.50;59.70
81842;DHT22;71284;50.918;7.092;2023-11-22T01:33:21;9.50;58.80
81842;DHT22;71284;50.918;7.092;2023-11-22T01:35:49;9.50;59.20
81842;DHT22;71284;50.918;7.092;2023-11-22T01:38:15;9.50;59.20
81842;DHT22;71284;50.918;7.092;2023-11-22T01:40:43;9.50;58.80
81842;DHT22;71284;50.918;7.092;2023-11-22T01:43:12;9.50;59.00
81842;DHT22;71284;50.918;7.092;2023-11-22T01:45:36;9.60;58.60
81842;DHT22;71284;50.918;7.092;2023-11-22T01:48:03;9.50;59.20
81842;DHT22;71284;50.918;7.092;2023-11-22T01:50:29;9.50;59.50
81842;DHT22;71284;50.918;7.092;2023-11-22T01:52:56;9.50;59.60
81842;DHT22;71284;50.918;7.092;2023-11-22T01:55:23;9.50;59.20
81842;DHT22;71284;50.918;7.092;2023-11-22T01:57:49;9.60;59.50
81842;DHT22;71284;50.918;7.092;2023-11-22T02:00:16;9.60;58.70
81842;DHT22;71284;50.918;7.092;2023-11-22T02:02:42;9.70;59.10
81842;DHT22;71284;50.918;7.092;2023-11-22T02:05:09;9.70;58.90
81842;DHT22;71284;50.918;7.092;2023-11-22T02:07:36;9.70;59.00
81842;DHT22;71284;50.918;7.092;2023-11-22T02:10:02;9.70;58.80
81842;DHT22;71284;50.918;7.092;2023-11-22T02:12:29;9.80;58.50
81842;DHT22;71284;50.918;7.092;2023-11-22T02:14:56;9.70;58.40
81842;DHT22;71284;50.918;7.092;2023-11-22T02:17:22;9.70;58.40
81842;DHT22;71284;50.918;7.092;2023-11-22T02:19:49;9.60;59.00
81842;DHT22;71284;50.918;7.092;2023-11-22T02:22:15;9.70;58.70
81842;DHT22;71284;50.918;7.092;2023-11-22T02:24:42;9.70;58.60
81842;DHT22;71284;50.918;7.092;2023-11-22T02:27:09;9.70;58.40
81842;DHT22;71284;50.918;7.092;2023-11-22T02:29:35;9.70;58.90
81842;DHT22;71284;50.918;7.092;2023-11-22T02:32:02;9.70;58.80
81842;DHT22;71284;50.918;7.092;2023-11-22T02:34:29;9.80;58.40
81842;DHT22;71284;50.918;7.092;2023-11-22T02:36:55;9.80;58.60
81842;DHT22;71284;50.918;7.092;2023-11-22T02:39:22;9.80;58.40
81842;DHT22;71284;50.918;7.092;2023-11-22T02:41:48;9.80;58.30
81842;DHT22;71284;50.918;7.092;2023-11-22T02:44:15;9.80;58.20
81842;DHT22;71284;50.918;7.092;2023-11-22T02:46:42;9.80;58.40
81842;DHT22;71284;50.918;7.092;2023-11-22T02:49:09;9.80;58.40
81842;DHT22;71284;50.918;7.092;2023-11-22T02:51:36;9.70;58.30
81842;DHT22;71284;50.918;7.092;2023-11-22T02:54:02;9.70;58.10
81842;DHT22;71284;50.918;7.092;2023-11-22T02:56:29;9.70;58.20
81842;DHT22;71284;50.918;7.092;2023-11-22T02:58:55;9.80;58.00
81842;DHT22;71284;50.918;7.092;2023-11-22T03:01:22;9.80;57.60
81842;DHT22;71284;50.918;7.092;2023-11-22T03:03:48;9.80;57.30
81842;DHT22;71284;50.918;7.092;2023-11-22T03:06:15;9.90;58.00
81842;DHT22;71284;50.918;7.092;2023-11-22T03:08:42;9.80;57.90
81842;DHT22;71284;50.918;7.092;2023-11-22T03:11:08;9.90;57.70
81842;DHT22;71284;50.918;7.092;2023-11-22T03:13:35;9.80;57.80
81842;DHT22;71284;50.918;7.092;2023-11-22T03:16:01;9.80;58.20
81842;DHT22;71284;50.918;7.092;2023-11-22T03:18:28;9.80;57.30
81842;DHT22;71284;50.918;7.092;2023-11-22T03:20:55;9.80;56.80
81842;DHT22;71284;50.918;7.092;2023-11-22T03:23:21;9.80;57.30
81842;DHT22;71284;50.918;7.092;2023-11-22T03:25:48;9.80;56.90
81842;DHT22;71284;50.918;7.092;2023-11-22T03:28:14;9.80;57.20
81842;DHT22;71284;50.918;7.092;2023-11-22T03:30:41;9.80;57.30
81842;DHT22;71284;50.918;7.092;2023-11-22T03:33:08;9.80;57.50
81842;DHT22;71284;50.918;7.092;2023-11-22T03:35:34;9.80;57.30
81842;DHT22;71284;50.918;7.092;2023-11-22T03:38:01;9.70;57.30
81842;DHT22;71284;50.918;7.092;2023-11-22T03:40:27;9.80;57.10
81842;DHT22;71284;50.918;7.092;2023-11-22T03:42:54;9.80;57.00
81842;DHT22;71284;50.918;7.092;2023-11-22T03:45:20;9.70;56.80
81842;DHT22;71284;50.918;7.092;2023-11-22T03:47:47;9.70;57.50
81842;DHT22;71284;50.918;7.092;2023-11-22T03:50:14;9.70;57.50
81842;DHT22;71284;50.918;7.092;2023-11-22T03:52:40;9.70;57.30
81842;DHT22;71284;50.918;7.092;2023-11-22T03:55:07;9.60;57.20
81842;DHT22;71284;50.918;7.092;2023-11-22T03:57:34;9.80;56.40
81842;DHT22;71284;50.918;7.092;2023-11-22T04:00:00;9.70;56.70
81842;DHT22;71284;50.918;7.092;2023-11-22T04:02:27;9.70;56.80
81842;DHT22;71284;50.918;7.092;2023-11-22T04:04:53;9.60;56.70
81842;DHT22;71284;50.918;7.092;2023-11-22T04:07:20;9.50;56.90
81842;DHT22;71284;50.918;7.092;2023-11-22T04:09:47;9.50;57.70
81842;DHT22;71284;50.918;7.092;2023-11-22T04:12:13;9.50;57.90
81842;DHT22;71284;50.918;7.092;2023-11-22T04:14:40;9.50;58.50
81842;DHT22;71284;50.918;7.092;2023-11-22T04:17:07;9.50;58.10
81842;DHT22;71284;50.918;7.092;2023-11-22T04:19:33;9.50;57.40
81842;DHT22;71284;50.918;7.092;2023-11-22T04:22:00;9.50;57.00
81842;DHT22;71284;50.918;7.092;2023-11-22T04:24:26;9.40;58.00
81842;DHT22;71284;50.918;7.092;2023-11-22T04:26:53;9.30;57.90
81842;DHT22;71284;50.918;7.092;2023-11-22T04:29:19;9.20;57.80
81842;DHT22;71284;50.918;7.092;2023-11-22T04:31:46;9.10;58.10
81842;DHT22;71284;50.918;7.092;2023-11-22T04:34:13;9.00;58.90
81842;DHT22;71284;50.918;7.092;2023-11-22T04:36:39;8.90;58.90
81842;DHT22;71284;50.918;7.092;2023-11-22T04:39:06;8.90;58.90
81842;DHT22;71284;50.918;7.092;2023-11-22T04:41:33;8.90;58.80
81842;DHT22;71284;50.918;7.092;2023-11-22T04:43:59;8.90;58.40
81842;DHT22;71284;50.918;7.092;2023-11-22T04:46:26;8.80;58.00
81842;DHT22;71284;50.918;7.092;2023-11-22T04:48:52;8.80;58.10
81842;DHT22;71284;50.918;7.092;2023-11-22T04:51:19;8.70;58.00
81842;DHT22;71284;50.918;7.092;2023-11-22T04:53:45;8.70;58.30
81842;DHT22;71284;50.918;7.092;2023-11-22T04:56:12;8.60;58.30
81842;DHT22;71284;50.918;7.092;2023-11-22T04:58:39;8.50;58.50
81842;DHT22;71284;50.918;7.092;2023-11-22T05:01:05;8.50;59.10
81842;DHT22;71284;50.918;7.092;2023-11-22T05:03:32;8.30;59.10
81842;DHT22;71284;50.918;7.092;2023-11-22T05:05:58;8.20;59.10
81842;DHT22;71284;50.918;7.092;2023-11-22T05:08:25;8.30;59.70
81842;DHT22;71284;50.918;7.092;2023-11-22T05:10:51;8.20;60.10
81842;DHT22;71284;50.918;7.092;2023-11-22T05:13:18;8.10;59.70
81842;DHT22;71284;50.918;7.092;2023-11-22T05:15:45;8.10;59.70
81842;DHT22;71284;50.918;7.092;2023-11-22T05:18:11;8.00;59.90
81842;DHT22;71284;50.918;7.092;2023-11-22T05:20:38;7.90;60.30
81842;DHT22;71284;50.918;7.092;2023-11-22T05:23:04;7.80;60.20
81842;DHT22;71284;50.918;7.092;2023-11-22T05:25:31;7.70;60.10
81842;DHT22;71284;50.918;7.092;2023-11-22T05:27:58;7.60;60.90
81842;DHT22;71284;50.918;7.092;2023-11-22T05:30:24;7.60;60.50
81842;DHT22;71284;50.918;7.092;2023-11-22T05:32:51;7.60;60.60
81842;DHT22;71284;50.918;7.092;2023-11-22T05:35:17;7.60;60.20
81842;DHT22;71284;50.918;7.092;2023-11-22T05:37:44;7.60;59.90
81842;DHT22;71284;50.918;7.092;2023-11-22T05:40:11;7.70;60.00
81842;DHT22;71284;50.918;7.092;2023-11-22T05:42:38;7.50;60.10
81842;DHT22;71284;50.918;7.092;2023-11-22T05:45:05;7.60;59.50
81842;DHT22;71284;50.918;7.092;2023-11-22T05:47:32;7.60;59.50
81842;DHT22;71284;50.918;7.092;2023-11-22T05:49:58;7.60;58.50
81842;DHT22;71284;50.918;7.092;2023-11-22T05:52:25;7.70;58.40
81842;DHT22;71284;50.918;7.092;2023-11-22T05:54:52;7.60;58.70
81842;DHT22;71284;50.918;7.092;2023-11-22T05:57:18;7.50;58.90
81842;DHT22;71284;50.918;7.092;2023-11-22T05:59:45;7.40;58.90
81842;DHT22;71284;50.918;7.092;2023-11-22T06:02:11;7.40;59.20
81842;DHT22;71284;50.918;7.092;2023-11-22T06:04:38;7.40;59.00
81842;DHT22;71284;50.918;7.092;2023-11-22T06:07:04;7.40;58.80
81842;DHT22;71284;50.918;7.092;2023-11-22T06:09:31;7.30;58.90
81842;DHT22;71284;50.918;7.092;2023-11-22T06:11:58;7.30;58.40
81842;DHT22;71284;50.918;7.092;2023-11-22T06:14:24;7.30;59.00
81842;DHT22;71284;50.918;7.092;2023-11-22T06:16:51;7.20;58.70
81842;DHT22;71284;50.918;7.092;2023-11-22T06:19:17;7.10;58.40
81842;DHT22;71284;50.918;7.092;2023-11-22T06:21:44;7.10;57.90
81842;DHT22;71284;50.918;7.092;2023-11-22T06:24:11;7.00;58.30
81842;DHT22;71284;50.918;7.092;2023-11-22T06:26:37;7.00;58.30
81842;DHT22;71284;50.918;7.092;2023-11-22T06:29:04;6.90;58.50
81842;DHT22;71284;50.918;7.092;2023-11-22T06:31:30;6.90;58.30
81842;DHT22;71284;50.918;7.092;2023-11-22T06:33:57;6.80;58.50
81842;DHT22;71284;50.918;7.092;2023-11-22T06:36:23;6.70;59.40
81842;DHT22;71284;50.918;7.092;2023-11-22T06:38:50;6.60;59.00
81842;DHT22;71284;50.918;7.092;2023-11-22T06:41:17;6.60;58.90
81842;DHT22;71284;50.918;7.092;2023-11-22T06:43:43;6.60;58.80
81842;DHT22;71284;50.918;7.092;2023-11-22T06:46:10;6.50;59.20
81842;DHT22;71284;50.918;7.092;2023-11-22T06:48:36;6.40;59.80
81842;DHT22;71284;50.918;7.092;2023-11-22T06:51:03;6.20;59.90
81842;DHT22;71284;50.918;7.092;2023-11-22T06:53:30;6.20;59.80
81842;DHT22;71284;50.918;7.092;2023-11-22T06:55:56;6.10;60.00
81842;DHT22;71284;50.918;7.092;2023-11-22T06:58:23;6.00;60.40
81842;DHT22;71284;50.918;7.092;2023-11-22T07:00:49;6.10;60.00
81842;DHT22;71284;50.918;7.092;2023-11-22T07:03:16;6.10;60.10
81842;DHT22;71284;50.918;7.092;2023-11-22T07:05:43;6.10;59.90
81842;DHT22;71284;50.918;7.092;2023-11-22T07:08:09;6.00;59.50
81842;DHT22;71284;50.918;7.092;2023-11-22T07:10:36;6.00;59.70
81842;DHT22;71284;50.918;7.092;2023-11-22T07:13:02;6.00;59.10
81842;DHT22;71284;50.918;7.092;2023-11-22T07:15:29;6.00;59.60
81842;DHT22;71284;50.918;7.092;2023-11-22T07:17:56;5.80;60.50
81842;DHT22;71284;50.918;7.092;2023-11-22T07:20:23;5.80;59.90
81842;DHT22;71284;50.918;7.092;2023-11-22T07:22:50;5.80;60.00
81842;DHT22;71284;50.918;7.092;2023-11-22T07:25:16;5.80;60.30
81842;DHT22;71284;50.918;7.092;2023-11-22T07:27:45;5.80;60.00
81842;DHT22;71284;50.918;7.092;2023-11-22T07:30:12;5.80;60.00
81842;DHT22;71284;50.918;7.092;2023-11-22T07:32:39;5.80;60.40
81842;DHT22;71284;50.918;7.092;2023-11-22T07:35:06;5.80;60.20
81842;DHT22;71284;50.918;7.092;2023-11-22T07:37:32;5.90;60.00
81842;DHT22;71284;50.918;7.092;2023-11-22T07:39:59;5.90;59.70
81842;DHT22;71284;50.918;7.092;2023-11-22T07:42:25;5.80;60.20
81842;DHT22;71284;50.918;7.092;2023-11-22T07:44:52;5.70;60.40
81842;DHT22;71284;50.918;7.092;2023-11-22T07:47:19;5.80;60.60
81842;DHT22;71284;50.918;7.092;2023-11-22T07:49:45;5.80;60.50
81842;DHT22;71284;50.918;7.092;2023-11-22T07:52:12;5.90;60.50
81842;DHT22;71284;50.918;7.092;2023-11-22T07:54:39;6.00;59.80
81842;DHT22;71284;50.918;7.092;2023-11-22T07:57:05;6.10;60.30
81842;DHT22;71284;50.918;7.092;2023-11-22T07:59:32;6.20;60.00
81842;DHT22;71284;50.918;7.092;2023-11-22T08:01:58;6.30;60.30
81842;DHT22;71284;50.918;7.092;2023-11-22T08:04:25;6.40;60.60
81842;DHT22;71284;50.918;7.092;2023-11-22T08:06:51;6.50;60.10
81842;DHT22;71284;50.918;7.092;2023-11-22T08:09:18;6.50;58.80
81842;DHT22;71284;50.918;7.092;2023-11-22T08:11:44;6.70;59.60
81842;DHT22;71284;50.918;7.092;2023-11-22T08:14:11;6.80;58.40
81842;DHT22;71284;50.918;7.092;2023-11-22T08:16:38;6.90;58.30
81842;DHT22;71284;50.918;7.092;2023-11-22T08:19:04;6.90;57.80
81842;DHT22;71284;50.918;7.092;2023-11-22T08:21:31;7.00;58.80
81842;DHT22;71284;50.918;7.092;2023-11-22T08:23:57;7.20;58.50
81842;DHT22;71284;50.918;7.092;2023-11-22T08:26:24;7.40;56.40
81842;DHT22;71284;50.918;7.092;2023-11-22T08:28:51;7.50;56.80
81842;DHT22;71284;50.918;7.092;2023-11-22T08:31:17;7.60;57.00
81842;DHT22;71284;50.918;7.092;2023-11-22T08:33:44;7.70;56.40
81842;DHT22;71284;50.918;7.092;2023-11-22T08:36:10;7.80;55.10
81842;DHT22;71284;50.918;7.092;2023-11-22T08:38:37;7.90;55.20
81842;DHT22;71284;50.918;7.092;2023-11-22T08:41:10;8.10;54.30
81842;DHT22;71284;50.918;7.092;2023-11-22T08:43:38;8.20;52.90
81842;DHT22;71284;50.918;7.092;2023-11-22T08:46:04;8.30;53.10
81842;DHT22;71284;50.918;7.092;2023-11-22T08:48:31;8.40;52.30
81842;DHT22;71284;50.918;7.092;2023-11-22T08:50:58;8.50;53.00
81842;DHT22;71284;50.918;7.092;2023-11-22T08:53:24;8.60;53.90
81842;DHT22;71284;50.918;7.092;2023-11-22T08:55:51;8.50;49.70
81842;DHT22;71284;50.918;7.092;2023-11-22T08:58:17;8.90;51.50
81842;DHT22;71284;50.918;7.092;2023-11-22T09:00:44;9.60;50.20
81842;DHT22;71284;50.918;7.092;2023-11-22T09:03:11;10.30;47.60
81842;DHT22;71284;50.918;7.092;2023-11-22T09:05:39;10.50;46.60
81842;DHT22;71284;50.918;7.092;2023-11-22T09:08:05;10.40;46.30
81842;DHT22;71284;50.918;7.092;2023-11-22T09:10:32;10.20;46.00
81842;DHT22;71284;50.918;7.092;2023-11-22T09:12:58;10.10;46.00
81842;DHT22;71284;50.918;7.092;2023-11-22T09:15:26;9.90;45.70
81842;DHT22;71284;50.918;7.092;2023-11-22T09:17:52;9.80;46.10
81842;DHT22;71284;50.918;7.092;2023-11-22T09:20:19;9.60;47.10
81842;DHT22;71284;50.918;7.092;2023-11-22T09:22:47;9.40;48.10
81842;DHT22;71284;50.918;7.092;2023-11-22T09:25:14;9.30;46.30
81842;DHT22;71284;50.918;7.092;2023-11-22T09:27:40;9.30;45.90
81842;DHT22;71284;50.918;7.092;2023-11-22T09:30:07;9.40;45.70
81842;DHT22;71284;50.918;7.092;2023-11-22T09:32:34;9.60;46.60
81842;DHT22;71284;50.918;7.092;2023-11-22T09:35:00;10.00;45.50
81842;DHT22;71284;50.918;7.092;2023-11-22T09:37:27;10.40;44.50
81842;DHT22;71284;50.918;7.092;2023-11-22T09:39:54;10.60;42.50
81842;DHT22;71284;50.918;7.092;2023-11-22T09:42:20;11.00;43.70
81842;DHT22;71284;50.918;7.092;2023-11-22T09:44:47;11.30;40.90
81842;DHT22;71284;50.918;7.092;2023-11-22T09:47:13;10.90;40.20
81842;DHT22;71284;50.918;7.092;2023-11-22T09:49:40;11.20;39.90
81842;DHT22;71284;50.918;7.092;2023-11-22T09:52:07;11.40;39.20
81842;DHT22;71284;50.918;7.092;2023-11-22T09:54:33;11.70;39.50
81842;DHT22;71284;50.918;7.092;2023-11-22T09:57:00;11.90;39.00
81842;DHT22;71284;50.918;7.092;2023-11-22T09:59:26;12.00;38.90
81842;DHT22;71284;50.918;7.092;2023-11-22T10:01:53;12.20;39.40
81842;DHT22;71284;50.918;7.092;2023-11-22T10:04:20;12.10;37.50
81842;DHT22;71284;50.918;7.092;2023-11-22T10:06:46;12.20;37.60
81842;DHT22;71284;50.918;7.092;2023-11-22T10:09:13;12.50;38.00
81842;DHT22;71284;50.918;7.092;2023-11-22T10:11:39;13.10;37.70
81842;DHT22;71284;50.918;7.092;2023-11-22T10:14:06;13.50;37.80
81842;DHT22;71284;50.918;7.092;2023-11-22T10:16:33;13.30;35.80
81842;DHT22;71284;50.918;7.092;2023-11-22T10:18:59;13.30;35.70
81842;DHT22;71284;50.918;7.092;2023-11-22T10:21:27;13.20;36.30
81842;DHT22;71284;50.918;7.092;2023-11-22T10:23:54;13.30;37.00
81842;DHT22;71284;50.918;7.092;2023-11-22T10:26:21;13.30;36.70
81842;DHT22;71284;50.918;7.092;2023-11-22T10:28:47;13.30;36.10
81842;DHT22;71284;50.918;7.092;2023-11-22T10:31:14;13.10;36.30
81842;DHT22;71284;50.918;7.092;2023-11-22T10:33:40;12.80;34.10
81842;DHT22;71284;50.918;7.092;2023-11-22T10:36:08;12.70;35.90
81842;DHT22;71284;50.918;7.092;2023-11-22T10:38:34;12.90;37.20
81842;DHT22;71284;50.918;7.092;2023-11-22T10:41:04;12.90;36.60
81842;DHT22;71284;50.918;7.092;2023-11-22T10:43:29;12.70;36.20
81842;DHT22;71284;50.918;7.092;2023-11-22T10:45:56;12.50;36.10
81842;DHT22;71284;50.918;7.092;2023-11-22T10:48:23;12.40;34.80
81842;DHT22;71284;50.918;7.092;2023-11-22T10:50:49;12.10;36.90
81842;DHT22;71284;50.918;7.092;2023-11-22T10:53:16;12.00;36.90
81842;DHT22;71284;50.918;7.092;2023-11-22T10:55:44;11.90;36.10
81842;DHT22;71284;50.918;7.092;2023-11-22T10:58:09;11.70;35.50
81842;DHT22;71284;50.918;7.092;2023-11-22T11:00:36;11.80;35.60
81842;DHT22;71284;50.918;7.092;2023-11-22T11:03:07;11.80;35.90
81842;DHT22;71284;50.918;7.092;2023-11-22T11:05:30;12.00;34.50
81842;DHT22;71284;50.918;7.092;2023-11-22T11:08:01;12.30;35.50
81842;DHT22;71284;50.918;7.092;2023-11-22T11:10:26;12.50;36.30
81842;DHT22;71284;50.918;7.092;2023-11-22T11:12:53;12.70;34.30
81842;DHT22;71284;50.918;7.092;2023-11-22T11:15:21;12.70;33.40
81842;DHT22;71284;50.918;7.092;2023-11-22T11:17:46;12.90;33.40
81842;DHT22;71284;50.918;7.092;2023-11-22T11:20:13;12.80;32.80
81842;DHT22;71284;50.918;7.092;2023-11-22T11:22:39;12.20;33.70
81842;DHT22;71284;50.918;7.092;2023-11-22T11:25:06;12.30;34.50
81842;DHT22;71284;50.918;7.092;2023-11-22T11:27:33;12.40;33.80
81842;DHT22;71284;50.918;7.092;2023-11-22T11:29:59;12.20;35.20
81842;DHT22;71284;50.918;7.092;2023-11-22T11:32:31;12.10;34.80
81842;DHT22;71284;50.918;7.092;2023-11-22T11:34:57;12.30;36.40
81842;DHT22;71284;50.918;7.092;2023-11-22T11:37:24;12.30;35.20
81842;DHT22;71284;50.918;7.092;2023-11-22T11:39:51;12.20;33.90
81842;DHT22;71284;50.918;7.092;2023-11-22T11:42:17;12.00;32.00
81842;DHT22;71284;50.918;7.092;2023-11-22T11:45:05;12.00;34.40
81842;DHT22;71284;50.918;7.092;2023-11-22T11:47:32;12.20;34.80
81842;DHT22;71284;50.918;7.092;2023-11-22T11:49:58;12.30;34.70
81842;DHT22;71284;50.918;7.092;2023-11-22T11:52:25;12.30;31.00
81842;DHT22;71284;50.918;7.092;2023-11-22T11:54:52;12.20;31.70
81842;DHT22;71284;50.918;7.092;2023-11-22T11:57:18;12.20;30.60
81842;DHT22;71284;50.918;7.092;2023-11-22T11:59:45;12.20;31.80
81842;DHT22;71284;50.918;7.092;2023-11-22T12:02:11;11.90;30.20
81842;DHT22;71284;50.918;7.092;2023-11-22T12:04:38;11.80;33.10
81842;DHT22;71284;50.918;7.092;2023-11-22T12:07:07;11.70;30.70
81842;DHT22;71284;50.918;7.092;2023-11-22T12:09:31;11.90;33.70
81842;DHT22;71284;50.918;7.092;2023-11-22T12:11:59;12.20;34.60
81842;DHT22;71284;50.918;7.092;2023-11-22T12:14:24;12.50;33.40
81842;DHT22;71284;50.918;7.092;2023-11-22T12:16:51;12.40;32.30
81842;DHT22;71284;50.918;7.092;2023-11-22T12:19:21;12.50;32.00
81842;DHT22;71284;50.918;7.092;2023-11-22T12:21:47;12.40;31.90
81842;DHT22;71284;50.918;7.092;2023-11-22T12:24:14;12.20;30.70
81842;DHT22;71284;50.918;7.092;2023-11-22T12:26:44;12.20;33.80
81842;DHT22;71284;50.918;7.092;2023-11-22T12:29:07;12.30;31.50
81842;DHT22;71284;50.918;7.092;2023-11-22T12:31:33;12.30;31.00
81842;DHT22;71284;50.918;7.092;2023-11-22T12:34:00;12.20;33.70
81842;DHT22;71284;50.918;7.092;2023-11-22T12:36:26;12.10;29.10
81842;DHT22;71284;50.918;7.092;2023-11-22T12:38:54;12.10;33.90
81842;DHT22;71284;50.918;7.092;2023-11-22T12:41:20;12.10;34.40
81842;DHT22;71284;50.918;7.092;2023-11-22T12:44:01;12.10;30.40
81842;DHT22;71284;50.918;7.092;2023-11-22T12:46:13;12.40;30.20
81842;DHT22;71284;50.918;7.092;2023-11-22T12:48:39;12.90;28.20
81842;DHT22;71284;50.918;7.092;2023-11-22T12:51:14;13.20;27.90
81842;DHT22;71284;50.918;7.092;2023-11-22T12:53:33;13.40;28.40
81842;DHT22;71284;50.918;7.092;2023-11-22T12:55:59;13.30;28.30
81842;DHT22;71284;50.918;7.092;2023-11-22T12:58:26;13.50;29.20
81842;DHT22;71284;50.918;7.092;2023-11-22T13:00:53;14.10;30.00
81842;DHT22;71284;50.918;7.092;2023-11-22T13:03:19;14.20;29.50
81842;DHT22;71284;50.918;7.092;2023-11-22T13:05:46;13.50;30.00
81842;DHT22;71284;50.918;7.092;2023-11-22T13:08:12;13.80;27.90
81842;DHT22;71284;50.918;7.092;2023-11-22T13:10:39;14.10;29.20
81842;DHT22;71284;50.918;7.092;2023-11-22T13:13:05;14.80;31.20
81842;DHT22;71284;50.918;7.092;2023-11-22T13:15:32;15.30;26.90
81842;DHT22;71284;50.918;7.092;2023-11-22T13:17:59;16.00;27.90
81842;DHT22;71284;50.918;7.092;2023-11-22T13:20:25;16.90;28.30
81842;DHT22;71284;50.918;7.092;2023-11-22T13:22:52;17.60;24.40
81842;DHT22;71284;50.918;7.092;2023-11-22T13:25:19;18.40;23.60
81842;DHT22;71284;50.918;7.092;2023-11-22T13:27:46;18.70;23.50
81842;DHT22;71284;50.918;7.092;2023-11-22T13:30:13;18.40;23.00
81842;DHT22;71284;50.918;7.092;2023-11-22T13:32:39;18.70;22.80
81842;DHT22;71284;50.918;7.092;2023-11-22T13:35:06;19.10;22.30
81842;DHT22;71284;50.918;7.092;2023-11-22T13:37:32;19.30;23.60
81842;DHT22;71284;50.918;7.092;2023-11-22T13:39:59;19.20;21.20
81842;DHT22;71284;50.918;7.092;2023-11-22T13:42:26;19.50;22.50
81842;DHT22;71284;50.918;7.092;2023-11-22T13:44:52;19.40;21.10
81842;DHT22;71284;50.918;7.092;2023-11-22T13:47:19;19.10;21.90
81842;DHT22;71284;50.918;7.092;2023-11-22T13:49:45;18.80;23.40
81842;DHT22;71284;50.918;7.092;2023-11-22T13:52:12;18.10;22.60
81842;DHT22;71284;50.918;7.092;2023-11-22T13:54:38;17.10;24.70
81842;DHT22;71284;50.918;7.092;2023-11-22T13:57:05;15.80;25.90
81842;DHT22;71284;50.918;7.092;2023-11-22T13:59:32;15.10;28.70
81842;DHT22;71284;50.918;7.092;2023-11-22T14:01:58;14.40;27.40
81842;DHT22;71284;50.918;7.092;2023-11-22T14:04:25;13.70;29.10
81842;DHT22;71284;50.918;7.092;2023-11-22T14:06:51;13.30;29.00
81842;DHT22;71284;50.918;7.092;2023-11-22T14:09:18;13.00;30.30
81842;DHT22;71284;50.918;7.092;2023-11-22T14:11:45;12.90;28.90
81842;DHT22;71284;50.918;7.092;2023-11-22T14:14:11;12.80;30.10
81842;DHT22;71284;50.918;7.092;2023-11-22T14:16:38;12.50;30.90
81842;DHT22;71284;50.918;7.092;2023-11-22T14:19:04;12.30;29.30
81842;DHT22;71284;50.918;7.092;2023-11-22T14:21:31;12.10;29.50
81842;DHT22;71284;50.918;7.092;2023-11-22T14:23:58;11.90;29.60
81842;DHT22;71284;50.918;7.092;2023-11-22T14:26:24;11.80;29.60
81842;DHT22;71284;50.918;7.092;2023-11-22T14:28:52;11.60;29.50
81842;DHT22;71284;50.918;7.092;2023-11-22T14:31:17;11.50;29.60
81842;DHT22;71284;50.918;7.092;2023-11-22T14:33:44;11.50;35.10
81842;DHT22;71284;50.918;7.092;2023-11-22T14:36:11;11.40;30.90
81842;DHT22;71284;50.918;7.092;2023-11-22T14:38:37;11.40;33.60
81842;DHT22;71284;50.918;7.092;2023-11-22T14:41:04;11.40;33.80
81842;DHT22;71284;50.918;7.092;2023-11-22T14:43:30;11.40;32.40
81842;DHT22;71284;50.918;7.092;2023-11-22T14:45:57;11.40;31.80
81842;DHT22;71284;50.918;7.092;2023-11-22T14:48:24;11.30;32.70
81842;DHT22;71284;50.918;7.092;2023-11-22T14:50:50;11.10;33.10
81842;DHT22;71284;50.918;7.092;2023-11-22T14:53:17;11.00;33.50
81842;DHT22;71284;50.918;7.092;2023-11-22T14:55:43;11.00;33.80
81842;DHT22;71284;50.918;7.092;2023-11-22T14:58:10;10.90;33.40
81842;DHT22;71284;50.918;7.092;2023-11-22T15:00:37;11.00;36.50
81842;DHT22;71284;50.918;7.092;2023-11-22T15:03:03;10.90;36.10
81842;DHT22;71284;50.918;7.092;2023-11-22T15:05:30;10.90;38.30
81842;DHT22;71284;50.918;7.092;2023-11-22T15:07:56;10.80;38.20
81842;DHT22;71284;50.918;7.092;2023-11-22T15:10:23;10.80;37.60
81842;DHT22;71284;50.918;7.092;2023-11-22T15:12:50;10.70;39.70
81842;DHT22;71284;50.918;7.092;2023-11-22T15:15:16;10.50;37.80
81842;DHT22;71284;50.918;7.092;2023-11-22T15:17:43;10.40;38.60
81842;DHT22;71284;50.918;7.092;2023-11-22T15:20:10;10.50;39.50
81842;DHT22;71284;50.918;7.092;2023-11-22T15:22:37;10.50;37.90
81842;DHT22;71284;50.918;7.092;2023-11-22T15:25:04;10.40;38.50
81842;DHT22;71284;50.918;7.092;2023-11-22T15:27:30;10.40;39.80
81842;DHT22;71284;50.918;7.092;2023-11-22T15:29:57;10.30;39.00
81842;DHT22;71284;50.918;7.092;2023-11-22T15:32:23;10.20;38.60
81842;DHT22;71284;50.918;7.092;2023-11-22T15:34:50;10.20;40.30